createdAt,value
2018-07-15T00:00:35.775Z,81.00
2018-07-15T00:03:06.680Z,81.10
2018-07-15T00:05:37.518Z,81.50
2018-07-15T00:08:08.840Z,81.70
2018-07-15T00:10:45.116Z,82.10
2018-07-15T00:13:15.849Z,82.40
2018-07-15T00:15:46.818Z,82.60
2018-07-15T00:18:17.876Z,82.40
2018-07-15T00:20:49.066Z,83.00
2018-07-15T00:23:20.081Z,83.10
2018-07-15T00:25:50.739Z,83.30
2018-07-15T00:28:21.787Z,82.90
2018-07-15T00:30:56.626Z,82.90
2018-07-15T00:33:30.231Z,83.10
2018-07-15T00:36:00.877Z,82.70
2018-07-15T00:38:31.279Z,83.10
2018-07-15T00:41:04.748Z,82.90
2018-07-15T00:43:34.848Z,83.00
2018-07-15T00:46:07.044Z,83.40
2018-07-15T00:48:37.247Z,83.50
2018-07-15T00:51:13.397Z,83.80
2018-07-15T00:53:45.023Z,83.50
2018-07-15T00:56:15.649Z,83.90
2018-07-15T00:59:00.467Z,84.40
2018-07-15T01:01:31.381Z,84.80
2018-07-15T01:04:06.992Z,84.60
2018-07-15T01:06:38.106Z,84.50
2018-07-15T01:09:10.388Z,84.60
2018-07-15T01:11:40.765Z,85.00
2018-07-15T01:14:11.580Z,84.90
2018-07-15T01:16:42.215Z,85.10
2018-07-15T01:19:12.661Z,85.30
2018-07-15T01:21:42.959Z,85.30
2018-07-15T01:24:13.736Z,85.40
2018-07-15T01:26:44.132Z,85.40
2018-07-15T01:29:14.829Z,85.30
2018-07-15T01:31:45.616Z,84.80
2018-07-15T01:34:16.865Z,84.80
2018-07-15T01:36:48.631Z,84.80
2018-07-15T01:39:19.192Z,84.60
2018-07-15T01:41:49.940Z,85.00
2018-07-15T01:46:50.376Z,86.10
2018-07-15T01:49:20.828Z,86.40
2018-07-15T01:51:52.266Z,86.60
2018-07-15T01:54:23.717Z,87.40
2018-07-15T01:56:54.317Z,87.00
2018-07-15T01:59:25.247Z,87.00
2018-07-15T02:01:55.686Z,87.20
2018-07-15T02:04:26.092Z,87.40
2018-07-15T02:07:00.410Z,87.60
2018-07-15T02:09:31.579Z,87.80
2018-07-15T02:12:02.158Z,88.30
2018-07-15T02:14:36.949Z,88.90
2018-07-15T02:17:07.706Z,89.70
2018-07-15T02:19:38.049Z,89.90
2018-07-15T02:22:14.463Z,90.10
2018-07-15T02:24:44.581Z,90.40
2018-07-15T02:27:14.859Z,90.50
2018-07-15T02:29:45.432Z,90.50
2018-07-15T02:32:20.462Z,90.00
2018-07-15T02:34:51.274Z,90.40
2018-07-15T02:37:22.557Z,91.20
2018-07-15T02:39:53.469Z,91.60
2018-07-15T02:42:23.741Z,91.30
2018-07-15T02:44:56.639Z,91.40
2018-07-15T02:47:27.299Z,91.80
2018-07-15T02:49:58.218Z,92.00
2018-07-15T02:52:28.602Z,92.20
2018-07-15T02:54:59.727Z,92.70
2018-07-15T02:57:30.238Z,92.50
2018-07-15T03:00:01.127Z,92.60
2018-07-15T03:02:31.913Z,92.90
2018-07-15T03:05:02.542Z,93.10
2018-07-15T03:07:33.182Z,93.30
2018-07-15T03:10:08.794Z,93.70
2018-07-15T03:12:38.839Z,94.10
2018-07-15T03:15:09.416Z,93.80
2018-07-15T03:17:40.476Z,93.80
2018-07-15T03:20:12.858Z,94.00
2018-07-15T03:22:43.097Z,94.10
2018-07-15T03:25:13.823Z,94.30
2018-07-15T03:27:43.928Z,94.30
2018-07-15T03:30:15.518Z,94.00
2018-07-15T03:32:45.706Z,93.80
2018-07-15T03:38:10.653Z,92.60
2018-07-15T03:40:43.910Z,92.80
2018-07-15T03:43:14.217Z,93.10
2018-07-15T03:45:44.621Z,93.70
2018-07-15T03:48:14.770Z,93.90
2018-07-15T03:50:45.088Z,94.20
2018-07-15T03:53:15.972Z,94.30
2018-07-15T03:55:45.884Z,94.70
2018-07-15T03:58:16.010Z,94.40
2018-07-15T04:00:46.873Z,94.80
2018-07-15T04:03:17.540Z,94.60
2018-07-15T04:05:48.125Z,95.10
2018-07-15T04:10:49.687Z,95.10
2018-07-15T04:13:20.349Z,95.20
2018-07-15T04:15:51.545Z,95.10
2018-07-15T04:18:22.549Z,94.90
2018-07-15T04:20:53.504Z,95.20
2018-07-15T04:23:24.105Z,95.10
2018-07-15T04:25:54.750Z,94.70
2018-07-15T04:28:25.848Z,94.70
2018-07-15T04:30:57.927Z,94.50
2018-07-15T04:33:28.830Z,94.60
2018-07-15T04:35:59.717Z,94.50
2018-07-15T04:38:30.393Z,94.00
2018-07-15T04:41:01.684Z,94.30
2018-07-15T04:43:32.152Z,93.80
2018-07-15T04:46:03.081Z,93.80
2018-07-15T04:48:34.132Z,93.80
2018-07-15T04:51:05.475Z,93.60
2018-07-15T04:53:36.095Z,92.90
2018-07-15T04:56:07.041Z,93.00
2018-07-15T04:58:37.309Z,92.70
2018-07-15T05:01:07.677Z,92.50
2018-07-15T05:03:37.946Z,92.30
2018-07-15T05:06:08.666Z,91.60
2018-07-15T05:08:39.188Z,91.30
2018-07-15T05:11:09.480Z,90.80
2018-07-15T05:13:40.204Z,90.40
2018-07-15T05:16:11.582Z,89.80
2018-07-15T05:18:47.228Z,89.70
2018-07-15T05:21:18.796Z,88.90
2018-07-15T05:23:50.570Z,88.50
2018-07-15T05:26:22.175Z,88.10
2018-07-15T05:28:53.650Z,88.00
2018-07-15T05:31:24.867Z,87.90
2018-07-15T05:33:55.879Z,87.00
2018-07-15T05:36:27.144Z,85.70
2018-07-15T05:38:59.233Z,85.50
2018-07-15T05:41:30.591Z,85.50
2018-07-15T05:44:02.403Z,84.90
2018-07-15T05:46:33.705Z,84.80
2018-07-15T05:49:05.876Z,84.60
2018-07-15T05:51:37.502Z,84.40
2018-07-15T05:54:09.452Z,83.50
2018-07-15T05:56:40.438Z,83.30
2018-07-15T05:59:11.713Z,83.00
2018-07-15T06:01:42.987Z,83.20
2018-07-15T06:04:13.528Z,83.10
2018-07-15T06:06:44.054Z,82.90
2018-07-15T06:09:14.955Z,82.30
2018-07-15T06:11:46.024Z,82.00
2018-07-15T06:14:16.533Z,81.90
2018-07-15T06:16:47.653Z,81.60
2018-07-15T06:19:18.546Z,81.00
2018-07-15T06:21:48.971Z,80.80
2018-07-15T06:24:19.951Z,80.70
2018-07-15T06:26:51.052Z,80.40
2018-07-15T06:29:21.455Z,80.50
2018-07-15T06:31:52.772Z,80.30
2018-07-15T06:34:23.398Z,80.10
2018-07-15T06:36:53.887Z,79.60
2018-07-15T06:39:25.892Z,79.20
2018-07-15T06:41:58.904Z,78.90
2018-07-15T06:44:29.687Z,78.80
2018-07-15T06:47:00.084Z,78.50
2018-07-15T06:49:31.457Z,77.80
2018-07-15T06:52:01.753Z,77.70
2018-07-15T06:54:32.824Z,77.50
2018-07-15T06:57:03.611Z,77.60
2018-07-15T06:59:33.956Z,77.30
2018-07-15T07:02:04.223Z,77.20
2018-07-15T07:04:34.781Z,77.00
2018-07-15T07:07:10.483Z,77.00
2018-07-15T07:09:41.326Z,75.70
2018-07-15T07:12:12.352Z,75.70
2018-07-15T07:14:43.211Z,75.90
2018-07-15T07:17:14.744Z,75.60
2018-07-15T07:19:45.543Z,75.40
2018-07-15T07:22:16.459Z,74.50
2018-07-15T07:24:47.474Z,74.20
2018-07-15T07:27:18.804Z,73.70
2018-07-15T07:29:49.080Z,73.20
2018-07-15T07:32:19.805Z,73.50
2018-07-15T07:34:50.214Z,72.60
2018-07-15T07:37:20.977Z,71.00
2018-07-15T07:39:52.259Z,71.10
2018-07-15T07:44:53.083Z,71.10
2018-07-15T07:47:23.763Z,69.60
2018-07-15T07:49:53.948Z,69.90
2018-07-15T07:52:25.081Z,69.90
2018-07-15T07:54:55.133Z,70.50
2018-07-15T07:57:26.908Z,70.80
2018-07-15T07:59:57.764Z,69.20
2018-07-15T08:02:29.721Z,69.60
2018-07-15T08:05:00.477Z,68.70
2018-07-15T08:07:32.118Z,68.90
2018-07-15T08:10:03.042Z,68.50
2018-07-15T08:12:33.796Z,66.60
2018-07-15T08:15:04.709Z,67.10
2018-07-15T08:20:05.718Z,66.60
2018-07-15T08:22:36.812Z,66.20
2018-07-15T08:25:08.262Z,65.70
2018-07-15T08:27:38.731Z,65.90
2018-07-15T08:32:22.655Z,65.50
2018-07-15T08:34:54.015Z,65.00
2018-07-15T08:37:34.079Z,65.90
2018-07-15T08:40:05.202Z,65.10
2018-07-15T08:42:37.482Z,64.40
2018-07-15T08:45:07.820Z,64.10
2018-07-15T08:47:41.648Z,64.90
2018-07-15T08:50:14.457Z,64.50
2018-07-15T08:52:48.226Z,64.80
2018-07-15T08:55:22.339Z,64.60
2018-07-15T08:57:55.941Z,64.90
2018-07-15T09:00:28.648Z,64.60
2018-07-15T09:03:00.226Z,63.80
2018-07-15T09:05:32.566Z,63.50
2018-07-15T09:08:04.155Z,64.10
2018-07-15T09:10:34.421Z,64.00
2018-07-15T09:13:06.050Z,63.00
2018-07-15T09:15:40.050Z,62.90
2018-07-15T09:18:12.268Z,62.90
2018-07-15T09:20:43.541Z,62.30
2018-07-15T09:23:15.291Z,62.20
2018-07-15T09:25:46.702Z,60.90
2018-07-15T09:28:17.525Z,59.20
2018-07-15T09:30:53.156Z,57.20
2018-07-15T09:33:26.657Z,57.70
2018-07-15T09:35:58.836Z,57.20
2018-07-15T09:38:31.276Z,56.00
2018-07-15T09:41:03.951Z,55.50
2018-07-15T09:43:35.900Z,55.70
2018-07-15T09:46:09.201Z,55.00
2018-07-15T09:48:40.299Z,54.50
2018-07-15T09:51:12.646Z,53.80
2018-07-15T09:53:46.647Z,54.30
2018-07-15T09:56:18.503Z,54.40
2018-07-15T09:58:51.780Z,53.30
2018-07-15T10:01:23.578Z,52.70
2018-07-15T10:03:59.348Z,53.20
2018-07-15T10:06:31.306Z,52.60
2018-07-15T10:09:04.499Z,52.50
2018-07-15T10:11:37.357Z,53.00
2018-07-15T10:14:09.465Z,53.30
2018-07-15T10:19:12.468Z,52.40
2018-07-15T10:21:44.963Z,53.40
2018-07-15T10:24:16.841Z,53.50
2018-07-15T10:26:48.886Z,52.80
2018-07-15T10:29:20.607Z,53.20
2018-07-15T10:31:52.588Z,53.30
2018-07-15T10:34:23.862Z,52.20
2018-07-15T10:36:57.515Z,51.70
2018-07-15T10:39:29.821Z,52.00
2018-07-15T10:42:00.646Z,51.10
2018-07-15T10:44:29.762Z,50.70
2018-07-15T10:46:59.888Z,50.90
2018-07-15T10:49:32.108Z,51.80
2018-07-15T10:52:02.997Z,50.70
2018-07-15T10:54:34.476Z,50.30
2018-07-15T10:57:04.994Z,50.80
2018-07-15T10:59:36.426Z,50.40
2018-07-15T11:07:06.497Z,49.70
2018-07-15T11:09:37.527Z,50.30
2018-07-15T11:12:06.497Z,49.40
2018-07-15T11:14:38.299Z,49.30
2018-07-15T11:17:08.628Z,49.20
2018-07-15T11:19:39.929Z,50.20
2018-07-15T11:22:08.845Z,48.70
2018-07-15T11:24:39.263Z,48.50
2018-07-15T11:27:10.314Z,49.40
2018-07-15T11:29:40.508Z,49.60
2018-07-15T11:32:11.173Z,49.20
2018-07-15T11:34:41.387Z,49.20
2018-07-15T11:37:12.175Z,48.60
2018-07-15T11:39:43.205Z,48.30
2018-07-15T11:42:14.978Z,48.40
2018-07-15T11:44:45.300Z,48.80
2018-07-15T11:47:15.938Z,47.80
2018-07-15T11:49:47.264Z,47.90
2018-07-15T11:52:17.752Z,47.60
2018-07-15T11:54:48.575Z,47.20
2018-07-15T11:57:19.745Z,47.20
2018-07-15T11:59:49.792Z,47.50
2018-07-15T12:02:18.829Z,47.70
2018-07-15T12:04:48.781Z,46.80
2018-07-15T12:07:18.711Z,47.20
2018-07-15T12:09:47.485Z,46.80
2018-07-15T12:12:17.809Z,46.70
2018-07-15T12:14:47.546Z,47.70
2018-07-15T12:17:18.670Z,47.50
2018-07-15T12:19:49.988Z,47.50
2018-07-15T12:22:21.813Z,47.00
2018-07-15T12:24:51.861Z,46.90
2018-07-15T12:27:25.707Z,46.20
2018-07-15T12:29:56.303Z,46.10
2018-07-15T12:32:27.170Z,46.10
2018-07-15T12:34:58.593Z,46.40
2018-07-15T12:37:30.381Z,46.40
2018-07-15T12:40:01.019Z,47.10
2018-07-15T12:42:36.061Z,45.50
2018-07-15T12:45:06.556Z,45.90
2018-07-15T12:47:37.564Z,45.40
2018-07-15T12:50:07.966Z,44.50
2018-07-15T12:52:47.434Z,44.90
2018-07-15T12:55:17.502Z,44.50
2018-07-15T12:57:47.654Z,44.70
2018-07-15T13:00:18.953Z,44.60
2018-07-15T13:02:49.466Z,44.20
2018-07-15T13:05:20.183Z,43.80
2018-07-15T13:07:50.617Z,44.10
2018-07-15T13:10:20.713Z,44.40
2018-07-15T13:15:51.914Z,44.70
2018-07-15T13:18:21.473Z,43.80
2018-07-15T13:20:51.438Z,43.30
2018-07-15T13:23:45.554Z,44.20
2018-07-15T13:26:24.135Z,43.70
2018-07-15T13:28:55.833Z,43.00
2018-07-15T13:31:26.969Z,43.50
2018-07-15T13:33:58.679Z,43.50
2018-07-15T13:36:31.862Z,43.60
2018-07-15T13:39:10.247Z,43.80
2018-07-15T13:41:55.245Z,43.20
2018-07-15T13:44:34.653Z,43.70
2018-07-15T13:47:11.360Z,43.60
2018-07-15T13:49:48.288Z,42.40
2018-07-15T13:52:28.987Z,42.10
2018-07-15T13:55:02.303Z,42.10
2018-07-15T13:57:42.600Z,42.40
2018-07-15T14:00:22.487Z,42.60
2018-07-15T14:05:52.113Z,42.00
2018-07-15T14:08:33.893Z,42.10
2018-07-15T14:11:15.676Z,42.50
2018-07-15T14:13:56.249Z,42.70
2018-07-15T14:16:40.165Z,42.90
2018-07-15T14:19:32.733Z,42.20
2018-07-15T14:22:18.293Z,42.20
2018-07-15T14:25:01.213Z,41.80
2018-07-15T14:27:32.109Z,42.50
2018-07-15T14:30:02.868Z,42.00
2018-07-15T14:32:32.993Z,41.60
2018-07-15T14:35:03.719Z,41.80
2018-07-15T14:37:34.554Z,42.10
2018-07-15T14:40:05.912Z,41.90
2018-07-15T14:42:35.981Z,41.40
2018-07-15T14:45:10.005Z,41.60
2018-07-15T14:47:47.168Z,41.70
2018-07-15T14:50:27.701Z,41.60
2018-07-15T14:53:07.086Z,41.90
2018-07-15T14:55:44.604Z,41.60
2018-07-15T14:58:23.122Z,41.80
2018-07-15T15:01:04.082Z,41.70
2018-07-15T15:03:55.497Z,41.70
2018-07-15T15:06:54.026Z,41.00
2018-07-15T15:09:32.041Z,41.70
2018-07-15T15:12:12.461Z,41.60
2018-07-15T15:15:11.875Z,41.00
2018-07-15T15:17:53.779Z,41.30
2018-07-15T15:20:40.658Z,40.50
2018-07-15T15:23:51.937Z,41.10
2018-07-15T15:27:33.760Z,41.40
2018-07-15T15:30:18.871Z,41.90
2018-07-15T15:32:51.778Z,41.80
2018-07-15T15:35:24.828Z,42.60
2018-07-15T15:37:58.021Z,41.80
2018-07-15T15:40:30.666Z,41.40
2018-07-15T15:43:03.472Z,41.20
2018-07-15T15:45:35.884Z,40.80
2018-07-15T15:48:08.718Z,41.40
2018-07-15T15:50:42.741Z,41.30
2018-07-15T15:53:14.143Z,41.60
2018-07-15T15:55:46.060Z,42.10
2018-07-15T15:58:18.896Z,41.60
2018-07-15T16:00:52.308Z,41.40
2018-07-15T16:03:34.821Z,41.30
2018-07-15T16:06:07.733Z,41.10
2018-07-15T16:08:40.379Z,41.90
2018-07-15T16:11:12.747Z,41.40
2018-07-15T16:13:48.603Z,41.80
2018-07-15T16:16:22.604Z,41.10
2018-07-15T16:19:02.593Z,41.80
2018-07-15T16:21:37.433Z,42.10
2018-07-15T16:24:10.481Z,41.60
2018-07-15T16:27:03.118Z,42.10
2018-07-15T16:29:52.340Z,42.40
2018-07-15T16:32:31.646Z,42.40
2018-07-15T16:35:12.819Z,42.00
2018-07-15T16:37:56.125Z,41.60
2018-07-15T16:40:28.471Z,41.70
2018-07-15T16:43:01.111Z,41.80
2018-07-15T16:45:35.065Z,42.10
2018-07-15T16:48:09.219Z,42.40
2018-07-15T16:50:42.795Z,42.50
2018-07-15T16:53:21.834Z,42.10
2018-07-15T16:56:00.094Z,41.60
2018-07-15T16:58:33.585Z,41.80
2018-07-15T17:01:08.584Z,41.90
2018-07-15T17:03:50.675Z,42.10
2018-07-15T17:06:29.791Z,41.90
2018-07-15T17:09:18.077Z,41.90
2018-07-15T17:11:55.481Z,41.90
2018-07-15T17:14:31.067Z,42.00
2018-07-15T17:17:04.595Z,42.00
2018-07-15T17:19:38.964Z,41.80
2018-07-15T17:22:13.444Z,42.00
2018-07-15T17:24:49.163Z,42.10
2018-07-15T17:27:21.149Z,42.20
2018-07-15T17:30:05.758Z,42.60
2018-07-15T17:32:38.610Z,42.60
2018-07-15T17:35:11.180Z,43.00
2018-07-15T17:38:12.995Z,43.00
2018-07-15T17:40:46.638Z,43.40
2018-07-15T17:43:18.096Z,43.50
2018-07-15T17:45:50.508Z,43.20
2018-07-15T17:48:22.538Z,43.40
2018-07-15T17:50:54.643Z,43.60
2018-07-15T17:53:25.292Z,43.80
2018-07-15T17:55:57.077Z,43.80
2018-07-15T17:58:27.997Z,43.00
2018-07-15T18:00:59.271Z,43.00
2018-07-15T18:03:37.499Z,43.40
2018-07-15T18:06:13.900Z,43.90
2018-07-15T18:08:52.310Z,44.40
2018-07-15T18:11:29.947Z,45.50
2018-07-15T18:14:09.101Z,47.20
2018-07-15T18:16:49.573Z,48.40
2018-07-15T18:19:24.441Z,49.20
2018-07-15T18:21:58.712Z,50.10
2018-07-15T18:25:17.181Z,50.70
2018-07-15T18:28:05.556Z,51.20
2018-07-15T18:30:58.576Z,51.40
2018-07-15T18:33:35.669Z,51.90
2018-07-15T18:36:08.588Z,52.40
2018-07-15T18:38:47.135Z,52.80
2018-07-15T18:41:21.869Z,52.90
2018-07-15T18:44:11.260Z,53.20
2018-07-15T18:46:48.905Z,53.50
2018-07-15T18:49:25.015Z,54.10
2018-07-15T18:52:00.014Z,54.30
2018-07-15T18:57:39.557Z,54.50
2018-07-15T19:00:16.673Z,54.90
2018-07-15T19:02:52.715Z,55.30
2018-07-15T19:05:32.742Z,55.50
2018-07-15T19:08:05.090Z,55.90
2018-07-15T19:11:03.702Z,56.10
2018-07-15T19:13:42.217Z,56.40
2018-07-15T19:16:23.139Z,56.70
2018-07-15T19:19:02.538Z,57.00
2018-07-15T19:21:39.809Z,60.60
2018-07-15T19:24:15.631Z,58.40
2018-07-15T19:26:49.097Z,59.20
2018-07-15T19:29:19.837Z,59.50
2018-07-15T19:32:02.640Z,59.50
2018-07-15T19:34:47.287Z,59.70
2018-07-15T19:37:27.559Z,59.70
2018-07-15T19:40:03.328Z,60.90
2018-07-15T19:42:34.631Z,60.70
2018-07-15T19:45:11.116Z,60.80
2018-07-15T19:47:42.038Z,61.70
2018-07-15T19:50:12.454Z,61.30
2018-07-15T19:52:42.696Z,62.30
2018-07-15T19:55:13.185Z,61.90
2018-07-15T19:57:44.813Z,62.30
2018-07-15T20:00:14.297Z,62.30
2018-07-15T20:02:43.691Z,63.30
2018-07-15T20:05:12.725Z,63.10
2018-07-15T20:07:46.079Z,63.30
2018-07-15T20:10:21.462Z,63.70
2018-07-15T20:12:51.100Z,63.70
2018-07-15T20:15:22.443Z,63.80
2018-07-15T20:17:58.580Z,64.30
2018-07-15T20:20:29.290Z,65.30
2018-07-15T20:22:59.972Z,66.00
2018-07-15T20:25:40.422Z,65.90
2018-07-15T20:28:09.550Z,66.10
2018-07-15T20:30:40.352Z,66.70
2018-07-15T20:33:15.239Z,67.40
2018-07-15T20:35:53.557Z,68.50
2018-07-15T20:38:26.645Z,68.90
2018-07-15T20:40:58.233Z,69.70
2018-07-15T20:43:31.900Z,69.00
2018-07-15T20:46:03.408Z,69.70
2018-07-15T20:48:37.239Z,69.80
2018-07-15T20:51:09.209Z,69.90
2018-07-15T20:53:40.583Z,70.50
2018-07-15T20:56:14.287Z,69.80
2018-07-15T20:58:48.675Z,70.60
2018-07-15T21:01:20.777Z,70.50
2018-07-15T21:03:51.461Z,71.00
2018-07-15T21:06:21.683Z,71.30
2018-07-15T21:08:52.379Z,71.00
2018-07-15T21:11:24.372Z,71.10
2018-07-15T21:13:55.496Z,71.30
2018-07-15T21:16:25.843Z,72.00
2018-07-15T21:18:57.859Z,72.40
2018-07-15T21:21:28.035Z,72.20
2018-07-15T21:23:58.339Z,72.30
2018-07-15T21:26:31.068Z,72.20
2018-07-15T21:29:03.152Z,72.70
2018-07-15T21:31:34.428Z,73.10
2018-07-15T21:34:05.039Z,73.80
2018-07-15T21:36:35.648Z,73.00
2018-07-15T21:39:07.239Z,73.10
2018-07-15T21:41:38.526Z,73.30
2018-07-15T21:44:08.802Z,73.70
2018-07-15T21:46:38.606Z,73.40
2018-07-15T21:49:09.173Z,73.80
2018-07-15T21:51:39.355Z,74.30
2018-07-15T21:54:09.814Z,74.80
2018-07-15T21:56:40.455Z,75.50
2018-07-15T21:59:10.766Z,75.90
2018-07-15T22:01:43.575Z,76.10
2018-07-15T22:04:14.220Z,76.10
2018-07-15T22:06:54.956Z,76.30
2018-07-15T22:10:42.159Z,76.10
2018-07-15T22:13:13.174Z,76.20
2018-07-15T22:15:43.523Z,76.70
2018-07-15T22:18:14.495Z,76.50
2018-07-15T22:20:44.572Z,76.60
2018-07-15T22:23:15.472Z,76.30
2018-07-15T22:25:45.964Z,76.20
2018-07-15T22:28:16.353Z,76.30
2018-07-15T22:30:46.604Z,76.20
2018-07-15T22:33:16.850Z,76.30
2018-07-15T22:35:47.086Z,76.20
2018-07-15T22:38:17.170Z,76.20
2018-07-15T22:40:47.326Z,76.40
2018-07-15T22:43:17.934Z,76.60
2018-07-15T22:45:49.625Z,76.60
2018-07-15T22:48:19.596Z,77.00
2018-07-15T22:50:50.269Z,76.20
2018-07-15T22:53:20.620Z,74.90
2018-07-15T22:55:50.691Z,74.80
2018-07-15T22:58:21.151Z,74.80
2018-07-15T23:00:51.620Z,75.60
2018-07-15T23:03:21.493Z,75.90
2018-07-15T23:06:02.017Z,76.50
2018-07-15T23:08:33.196Z,77.00
2018-07-15T23:11:02.928Z,77.30
2018-07-15T23:13:33.159Z,77.80
2018-07-15T23:16:03.010Z,78.10
2018-07-15T23:18:33.882Z,77.70
2018-07-15T23:21:03.573Z,77.50
2018-07-15T23:23:33.321Z,77.40
2018-07-15T23:26:07.593Z,77.20
2018-07-15T23:28:37.762Z,77.20
2018-07-15T23:33:37.611Z,77.40
2018-07-15T23:36:07.459Z,77.70
2018-07-15T23:38:37.926Z,78.60
2018-07-15T23:41:12.864Z,78.80
2018-07-15T23:43:42.980Z,78.40
2018-07-15T23:46:13.448Z,77.80
2018-07-15T23:48:43.501Z,78.40
2018-07-15T23:51:18.819Z,78.70
2018-07-15T23:53:50.230Z,79.00
2018-07-15T23:56:20.666Z,79.30
2018-07-15T23:58:51.058Z,79.60
